createdAt,value
2019-05-19T00:01:28.602Z,31.40
2019-05-19T00:04:04.538Z,31.50
2019-05-19T00:06:36.989Z,31.25
2019-05-19T00:09:11.059Z,31.20
2019-05-19T00:14:14.294Z,30.85
2019-05-19T00:16:47.853Z,30.43
2019-05-19T00:19:26.771Z,30.65
2019-05-19T00:21:54.351Z,27.00
2019-05-19T00:24:27.648Z,29.18
2019-05-19T00:27:01.364Z,26.77
2019-05-19T00:29:33.664Z,27.05
2019-05-19T00:32:07.001Z,25.95
2019-05-19T00:34:39.063Z,27.00
2019-05-19T00:37:15.818Z,26.35
2019-05-19T00:39:48.021Z,24.37
2019-05-19T00:42:20.036Z,22.07
2019-05-19T00:44:52.026Z,20.95
2019-05-19T00:47:24.266Z,22.30
2019-05-19T00:50:06.975Z,22.00
2019-05-19T00:52:39.352Z,22.05
2019-05-19T00:55:11.410Z,23.18
2019-05-19T00:57:43.540Z,25.82
2019-05-19T01:00:19.350Z,24.50
2019-05-19T01:02:53.311Z,23.38
2019-05-19T01:05:25.555Z,21.57
2019-05-19T01:07:57.564Z,20.25
2019-05-19T01:10:29.548Z,19.52
2019-05-19T01:13:03.616Z,20.30
2019-05-19T01:15:35.942Z,17.80
2019-05-19T01:18:07.903Z,18.02
2019-05-19T01:20:40.065Z,18.98
2019-05-19T01:23:13.971Z,17.60
2019-05-19T01:25:46.180Z,18.52
2019-05-19T01:28:18.415Z,20.45
2019-05-19T01:30:51.131Z,19.30
2019-05-19T01:33:23.816Z,19.02
2019-05-19T01:35:56.716Z,18.70
2019-05-19T01:38:28.842Z,18.35
2019-05-19T01:41:00.824Z,16.80
2019-05-19T01:43:34.768Z,16.07
2019-05-19T01:46:10.626Z,14.73
2019-05-19T01:48:44.610Z,13.20
2019-05-19T01:51:16.839Z,13.85
2019-05-19T01:53:50.016Z,12.80
2019-05-19T01:58:54.121Z,11.18
2019-05-19T02:01:27.897Z,12.03
2019-05-19T02:04:00.615Z,12.70
2019-05-19T02:06:32.600Z,12.47
2019-05-19T02:09:06.395Z,13.08
2019-05-19T02:11:39.500Z,13.35
2019-05-19T02:14:12.259Z,14.53
2019-05-19T02:16:47.153Z,14.05
2019-05-19T02:19:21.019Z,13.95
2019-05-19T02:21:53.757Z,13.80
2019-05-19T02:24:27.127Z,13.88
2019-05-19T02:26:59.129Z,12.05
2019-05-19T02:29:31.328Z,12.98
2019-05-19T02:32:03.391Z,11.25
2019-05-19T02:34:35.392Z,10.60
2019-05-19T02:37:08.901Z,8.70
2019-05-19T02:39:40.878Z,8.60
2019-05-19T02:42:14.637Z,8.03
2019-05-19T02:44:50.527Z,8.23
2019-05-19T02:47:24.631Z,8.70
2019-05-19T02:52:31.268Z,9.38
2019-05-19T02:55:04.711Z,8.55
2019-05-19T02:57:38.760Z,9.55
2019-05-19T03:02:43.441Z,8.48
2019-05-19T03:05:15.637Z,9.23
2019-05-19T03:07:48.200Z,9.78
2019-05-19T03:10:20.233Z,9.10
2019-05-19T03:12:53.536Z,8.60
2019-05-19T03:15:30.108Z,8.58
2019-05-19T03:18:04.277Z,8.28
2019-05-19T03:20:38.608Z,8.05
2019-05-19T03:23:10.615Z,8.60
2019-05-19T03:25:44.219Z,8.25
2019-05-19T03:28:16.478Z,8.78
2019-05-19T03:30:53.165Z,8.55
2019-05-19T03:33:27.333Z,8.90
2019-05-19T03:35:59.579Z,8.50
2019-05-19T03:38:32.532Z,9.60
2019-05-19T03:41:04.571Z,8.95
2019-05-19T03:43:36.570Z,9.15
2019-05-19T03:46:08.789Z,8.98
2019-05-19T03:48:42.579Z,8.98
2019-05-19T03:51:29.482Z,8.68
2019-05-19T03:53:49.467Z,9.73
2019-05-19T03:56:22.185Z,9.90
2019-05-19T03:58:54.392Z,9.33
2019-05-19T04:01:28.703Z,8.35
2019-05-19T04:04:00.764Z,9.03
2019-05-19T04:06:32.752Z,9.18
2019-05-19T04:09:06.456Z,9.40
2019-05-19T04:11:39.163Z,8.35
2019-05-19T04:14:11.229Z,8.10
2019-05-19T04:16:44.179Z,7.50
2019-05-19T04:19:16.410Z,7.53
2019-05-19T04:21:49.779Z,7.78
2019-05-19T04:24:22.155Z,7.55
2019-05-19T04:26:54.125Z,7.65
2019-05-19T04:29:26.822Z,6.92
2019-05-19T04:31:58.788Z,7.35
2019-05-19T04:34:30.782Z,7.10
2019-05-19T04:37:04.147Z,7.03
2019-05-19T04:39:36.146Z,7.10
2019-05-19T04:42:08.119Z,7.05
2019-05-19T04:44:41.088Z,6.72
2019-05-19T04:47:13.366Z,6.17
2019-05-19T04:49:45.605Z,5.70
2019-05-19T04:52:18.295Z,5.58
2019-05-19T04:54:52.111Z,5.35
2019-05-19T04:57:25.660Z,6.25
2019-05-19T04:59:57.976Z,6.85
2019-05-19T05:02:31.487Z,6.50
2019-05-19T05:05:03.549Z,6.55
2019-05-19T05:07:37.062Z,6.00
2019-05-19T05:10:10.721Z,6.58
2019-05-19T05:12:44.114Z,6.10
2019-05-19T05:15:19.344Z,6.70
2019-05-19T05:17:55.417Z,5.30
2019-05-19T05:20:29.083Z,6.17
2019-05-19T05:23:02.595Z,5.75
2019-05-19T05:25:34.510Z,6.50
2019-05-19T05:28:06.506Z,5.37
2019-05-19T05:30:38.495Z,5.50
2019-05-19T05:33:12.001Z,6.40
2019-05-19T05:35:46.062Z,6.72
2019-05-19T05:38:18.021Z,6.37
2019-05-19T05:40:52.748Z,6.55
2019-05-19T05:43:29.255Z,6.58
2019-05-19T05:46:04.325Z,5.92
2019-05-19T05:48:36.606Z,5.58
2019-05-19T05:51:10.409Z,5.45
2019-05-19T05:53:46.898Z,5.12
2019-05-19T05:56:20.640Z,5.12
2019-05-19T05:58:52.850Z,6.28
2019-05-19T06:01:28.646Z,5.58
2019-05-19T06:04:03.347Z,5.78
2019-05-19T06:06:35.385Z,5.97
2019-05-19T06:09:11.350Z,5.80
2019-05-19T06:11:44.224Z,6.10
2019-05-19T06:14:18.727Z,6.40
2019-05-19T06:16:51.425Z,6.72
2019-05-19T06:19:23.693Z,6.30
2019-05-19T06:21:55.930Z,6.05
2019-05-19T06:24:29.522Z,5.65
2019-05-19T06:27:01.501Z,5.53
2019-05-19T06:29:35.113Z,5.47
2019-05-19T06:32:12.159Z,6.55
2019-05-19T06:34:46.070Z,5.72
2019-05-19T06:37:19.871Z,5.80
2019-05-19T06:39:54.300Z,4.97
2019-05-19T06:42:27.610Z,5.65
2019-05-19T06:45:01.085Z,5.22
2019-05-19T06:47:33.788Z,5.65
2019-05-19T06:50:11.220Z,4.92
2019-05-19T06:52:44.370Z,4.45
2019-05-19T06:55:17.447Z,4.50
2019-05-19T07:00:25.862Z,4.00
2019-05-19T07:02:59.090Z,4.20
2019-05-19T07:05:34.092Z,4.10
2019-05-19T07:08:07.633Z,4.00
2019-05-19T07:10:39.625Z,3.85
2019-05-19T07:13:12.689Z,4.33
2019-05-19T07:15:46.124Z,4.35
2019-05-19T07:18:21.786Z,3.75
2019-05-19T07:20:53.792Z,4.22
2019-05-19T07:23:28.839Z,4.03
2019-05-19T07:26:01.228Z,3.98
2019-05-19T07:28:33.800Z,3.75
2019-05-19T07:31:05.794Z,4.30
2019-05-19T07:33:38.260Z,4.00
2019-05-19T07:36:11.873Z,4.17
2019-05-19T07:38:47.427Z,4.08
2019-05-19T07:41:20.440Z,4.03
2019-05-19T07:43:54.162Z,3.60
2019-05-19T07:46:28.311Z,4.08
2019-05-19T07:49:03.891Z,4.00
2019-05-19T07:51:37.801Z,3.95
2019-05-19T07:54:11.115Z,3.92
2019-05-19T07:56:43.381Z,4.00
2019-05-19T07:59:15.363Z,3.98
2019-05-19T08:01:47.561Z,4.40
2019-05-19T08:04:19.831Z,4.47
2019-05-19T08:06:55.566Z,4.10
2019-05-19T08:09:27.809Z,4.10
2019-05-19T08:12:00.465Z,4.10
2019-05-19T08:14:32.500Z,4.75
2019-05-19T08:17:04.783Z,4.53
2019-05-19T08:19:37.420Z,4.20
2019-05-19T08:22:10.838Z,4.47
2019-05-19T08:24:43.673Z,4.00
2019-05-19T08:27:15.964Z,3.92
2019-05-19T08:29:48.022Z,4.35
2019-05-19T08:32:25.244Z,4.70
2019-05-19T08:34:58.176Z,3.98
2019-05-19T08:37:30.385Z,4.37
2019-05-19T08:40:03.680Z,3.90
2019-05-19T08:42:38.891Z,3.77
2019-05-19T08:45:12.090Z,3.90
2019-05-19T08:47:44.095Z,3.90
2019-05-19T08:50:16.078Z,4.12
2019-05-19T08:52:49.400Z,3.85
2019-05-19T08:55:21.396Z,3.98
2019-05-19T08:57:53.448Z,3.50
2019-05-19T09:00:25.476Z,3.60
2019-05-19T09:02:57.739Z,3.80
2019-05-19T09:05:29.796Z,3.83
2019-05-19T09:08:01.791Z,3.87
2019-05-19T09:10:34.036Z,3.65
2019-05-19T09:13:06.132Z,4.20
2019-05-19T09:15:39.244Z,3.90
2019-05-19T09:18:13.449Z,4.37
2019-05-19T09:20:46.850Z,3.83
2019-05-19T09:23:19.588Z,4.08
2019-05-19T09:25:54.788Z,3.80
2019-05-19T09:28:26.777Z,4.45
2019-05-19T09:30:58.805Z,4.00
2019-05-19T09:33:32.358Z,3.92
2019-05-19T09:36:06.206Z,3.83
2019-05-19T09:41:09.193Z,3.58
2019-05-19T09:43:41.911Z,4.00
2019-05-19T09:46:14.615Z,3.92
2019-05-19T09:48:48.260Z,4.37
2019-05-19T09:51:21.950Z,4.30
2019-05-19T09:53:55.542Z,4.20
2019-05-19T09:56:27.367Z,4.10
2019-05-19T09:59:00.701Z,3.72
2019-05-19T10:01:32.943Z,3.85
2019-05-19T10:04:07.094Z,4.20
2019-05-19T10:06:39.464Z,4.03
2019-05-19T10:09:16.401Z,3.67
2019-05-19T10:12:09.097Z,3.75
2019-05-19T10:14:44.011Z,3.02
2019-05-19T10:17:16.969Z,3.33
2019-05-19T10:19:51.636Z,3.20
2019-05-19T10:22:23.983Z,3.30
2019-05-19T10:25:10.825Z,3.15
2019-05-19T10:27:29.935Z,3.80
2019-05-19T10:30:02.207Z,3.83
2019-05-19T10:32:34.700Z,3.80
2019-05-19T10:35:08.134Z,3.50
2019-05-19T10:37:42.007Z,3.62
2019-05-19T10:40:14.253Z,3.33
2019-05-19T10:42:47.766Z,3.25
2019-05-19T10:47:53.082Z,3.25
2019-05-19T10:50:25.065Z,3.10
2019-05-19T10:52:57.750Z,3.62
2019-05-19T10:55:36.568Z,3.30
2019-05-19T10:58:04.326Z,4.03
2019-05-19T11:00:36.315Z,3.67
2019-05-19T11:05:56.274Z,3.37
2019-05-19T11:08:28.430Z,3.42
2019-05-19T11:11:00.688Z,3.35
2019-05-19T11:13:34.286Z,3.40
2019-05-19T11:16:07.224Z,3.17
2019-05-19T11:18:40.526Z,3.20
2019-05-19T11:21:13.244Z,3.15
2019-05-19T11:23:50.243Z,3.05
2019-05-19T11:26:27.452Z,2.98
2019-05-19T11:29:02.326Z,3.02
2019-05-19T11:31:35.689Z,3.10
2019-05-19T11:34:09.319Z,2.98
2019-05-19T11:36:47.698Z,3.15
2019-05-19T11:39:20.125Z,3.08
2019-05-19T11:41:52.689Z,3.00
2019-05-19T11:44:28.581Z,3.00
2019-05-19T11:47:04.191Z,3.10
2019-05-19T11:49:36.915Z,3.15
2019-05-19T11:52:09.895Z,2.85
2019-05-19T11:54:43.494Z,3.50
2019-05-19T11:57:17.887Z,2.98
2019-05-19T11:59:50.947Z,2.92
2019-05-19T12:02:23.253Z,2.87
2019-05-19T12:04:57.053Z,2.87
2019-05-19T12:07:31.285Z,3.00
2019-05-19T12:10:05.222Z,2.62
2019-05-19T12:12:37.217Z,2.95
2019-05-19T12:15:11.632Z,2.80
2019-05-19T12:17:43.677Z,2.90
2019-05-19T12:20:17.544Z,2.95
2019-05-19T12:22:49.738Z,2.65
2019-05-19T12:25:25.351Z,2.52
2019-05-19T12:27:58.120Z,2.55
2019-05-19T12:30:30.866Z,2.50
2019-05-19T12:33:07.177Z,2.30
2019-05-19T12:35:39.186Z,2.58
2019-05-19T12:38:12.728Z,2.20
2019-05-19T12:40:46.320Z,2.15
2019-05-19T12:43:18.288Z,1.95
2019-05-19T12:45:50.606Z,2.12
2019-05-19T12:48:25.370Z,2.30
2019-05-19T12:50:57.390Z,2.40
2019-05-19T12:53:30.651Z,2.33
2019-05-19T12:56:04.884Z,2.10
2019-05-19T12:58:37.436Z,2.50
2019-05-19T13:03:42.906Z,2.30
2019-05-19T13:06:15.207Z,2.17
2019-05-19T13:08:48.813Z,2.50
2019-05-19T13:11:21.109Z,2.20
2019-05-19T13:13:58.040Z,2.65
2019-05-19T13:16:33.027Z,2.20
2019-05-19T13:19:05.289Z,2.10
2019-05-19T13:21:37.280Z,2.40
2019-05-19T13:24:13.566Z,2.52
2019-05-19T13:26:56.241Z,2.30
2019-05-19T13:29:21.496Z,2.55
2019-05-19T13:32:00.793Z,2.57
2019-05-19T13:34:33.115Z,2.70
2019-05-19T13:37:05.775Z,2.72
2019-05-19T13:39:41.961Z,2.85
2019-05-19T13:42:15.785Z,2.58
2019-05-19T13:44:50.227Z,2.58
2019-05-19T13:47:27.218Z,2.58
2019-05-19T13:49:59.506Z,3.00
2019-05-19T13:52:32.375Z,3.00
2019-05-19T13:55:11.206Z,3.00
2019-05-19T13:57:43.198Z,2.87
2019-05-19T14:02:48.934Z,2.70
2019-05-19T14:05:21.222Z,3.08
2019-05-19T14:07:57.419Z,2.67
2019-05-19T14:10:29.396Z,2.65
2019-05-19T14:13:01.696Z,2.92
2019-05-19T14:15:37.243Z,2.95
2019-05-19T14:18:11.394Z,2.90
2019-05-19T14:20:46.595Z,2.65
2019-05-19T14:23:19.855Z,2.70
2019-05-19T14:25:56.234Z,2.70
2019-05-19T14:28:34.276Z,2.47
2019-05-19T14:31:07.166Z,2.10
2019-05-19T14:33:42.146Z,2.50
2019-05-19T14:36:14.378Z,2.00
2019-05-19T14:39:05.923Z,2.60
2019-05-19T14:41:38.978Z,2.52
2019-05-19T14:44:14.181Z,2.50
2019-05-19T14:46:46.873Z,3.20
2019-05-19T14:49:19.614Z,2.42
2019-05-19T14:51:54.821Z,2.40
2019-05-19T14:54:30.226Z,2.40
2019-05-19T14:57:04.524Z,2.10
2019-05-19T14:59:38.942Z,2.40
2019-05-19T15:02:11.764Z,2.27
2019-05-19T15:04:46.260Z,2.27
2019-05-19T15:07:19.752Z,2.00
2019-05-19T15:12:26.621Z,2.00
2019-05-19T15:17:30.180Z,2.20
2019-05-19T15:20:02.912Z,2.10
2019-05-19T15:22:37.049Z,2.33
2019-05-19T15:25:11.556Z,2.00
2019-05-19T15:27:57.849Z,2.40
2019-05-19T15:30:21.214Z,2.13
2019-05-19T15:32:53.989Z,2.00
2019-05-19T15:35:28.400Z,2.10
2019-05-19T15:38:00.486Z,2.55
2019-05-19T15:40:35.191Z,2.90
2019-05-19T15:43:07.177Z,4.60
2019-05-19T15:45:39.412Z,3.02
2019-05-19T15:48:14.333Z,3.00
2019-05-19T15:50:54.616Z,4.37
2019-05-19T15:53:27.779Z,5.85
2019-05-19T15:56:01.616Z,4.80
2019-05-19T15:58:33.795Z,5.37
2019-05-19T16:01:08.726Z,4.70
2019-05-19T16:03:44.687Z,5.62
2019-05-19T16:06:21.669Z,2.80
2019-05-19T16:08:59.974Z,3.62
2019-05-19T16:11:33.557Z,4.95
2019-05-19T16:14:08.071Z,4.60
2019-05-19T16:16:40.072Z,2.50
2019-05-19T16:19:13.814Z,2.10
2019-05-19T16:21:47.734Z,1.70
2019-05-19T16:24:26.062Z,2.12
2019-05-19T16:27:03.196Z,2.20
2019-05-19T16:29:35.956Z,2.85
2019-05-19T16:32:11.778Z,2.00
2019-05-19T16:34:46.061Z,2.90
2019-05-19T16:37:18.051Z,3.00
2019-05-19T16:39:50.292Z,2.15
2019-05-19T16:42:26.936Z,2.30
2019-05-19T16:45:00.663Z,3.58
2019-05-19T16:47:33.716Z,3.62
2019-05-19T16:50:15.632Z,4.22
2019-05-19T16:52:48.635Z,4.65
2019-05-19T16:55:25.437Z,5.28
2019-05-19T16:57:58.912Z,6.10
2019-05-19T17:00:32.707Z,7.60
2019-05-19T17:03:04.947Z,8.60
2019-05-19T17:05:38.142Z,5.55
2019-05-19T17:08:10.522Z,5.10
2019-05-19T17:10:44.883Z,5.90
2019-05-19T17:13:19.283Z,6.17
2019-05-19T17:15:55.072Z,7.22
2019-05-19T17:18:28.565Z,8.45
2019-05-19T17:21:02.201Z,9.80
2019-05-19T17:23:34.016Z,9.95
2019-05-19T17:26:11.734Z,9.75
2019-05-19T17:28:59.805Z,9.55
2019-05-19T17:31:22.875Z,6.53
2019-05-19T17:33:56.189Z,7.75
2019-05-19T17:36:30.316Z,9.68
2019-05-19T19:52:54.679Z,9.65
2019-05-19T20:01:07.683Z,11.20
2019-05-19T20:21:04.900Z,10.50
2019-05-19T20:55:51.108Z,13.72
2019-05-19T21:04:21.406Z,16.32
2019-05-19T21:07:01.387Z,14.13
2019-05-19T21:09:40.742Z,13.13
2019-05-19T21:12:23.623Z,15.55
2019-05-19T21:15:04.440Z,13.58
2019-05-19T21:17:38.968Z,15.98
2019-05-19T21:20:17.664Z,16.25
2019-05-19T21:22:49.318Z,15.80
2019-05-19T21:25:22.325Z,16.75
2019-05-19T21:27:58.984Z,14.95
2019-05-19T21:30:34.278Z,13.98
2019-05-19T21:33:07.576Z,10.68
2019-05-19T21:35:41.058Z,8.80
2019-05-19T21:38:14.832Z,9.60
2019-05-19T21:40:53.764Z,10.30
2019-05-19T21:43:28.126Z,11.20
2019-05-19T21:45:59.923Z,10.90
2019-05-19T21:48:34.123Z,12.75
2019-05-19T21:51:16.178Z,12.25
2019-05-19T21:53:54.488Z,12.05
2019-05-19T21:56:26.136Z,13.60
2019-05-19T21:58:59.887Z,13.53
2019-05-19T22:01:32.872Z,14.95
2019-05-19T22:04:05.641Z,15.65
2019-05-19T22:06:40.914Z,15.03
2019-05-19T22:09:12.950Z,14.25
2019-05-19T22:11:54.066Z,16.67
2019-05-19T22:14:36.536Z,14.03
2019-05-19T22:17:10.131Z,14.83
2019-05-19T22:19:48.626Z,14.85
2019-05-19T22:22:23.768Z,14.87
2019-05-19T22:24:55.432Z,15.78
2019-05-19T22:27:32.938Z,13.75
2019-05-19T22:30:10.778Z,14.87
2019-05-19T22:32:44.384Z,14.75
2019-05-19T22:35:20.187Z,16.62
2019-05-19T22:37:55.280Z,15.48
2019-05-19T22:43:10.360Z,15.23
2019-05-19T22:45:44.916Z,16.55
2019-05-19T22:48:16.274Z,14.03
2019-05-19T22:51:08.811Z,12.43
2019-05-19T22:53:42.084Z,12.88
2019-05-19T22:56:18.213Z,11.27
2019-05-19T22:59:18.766Z,11.85
2019-05-19T23:01:51.381Z,11.88
2019-05-19T23:04:17.438Z,10.95
2019-05-19T23:06:49.424Z,12.53
2019-05-19T23:09:24.946Z,10.63
2019-05-19T23:12:02.537Z,10.63
2019-05-19T23:14:34.540Z,9.80
2019-05-19T23:17:27.515Z,10.85
2019-05-19T23:20:03.376Z,9.58
2019-05-19T23:22:38.098Z,8.88
2019-05-19T23:25:13.765Z,8.30
2019-05-19T23:27:47.618Z,8.60
2019-05-19T23:30:23.221Z,8.15
2019-05-19T23:32:55.208Z,7.20
2019-05-19T23:35:39.616Z,6.83
2019-05-19T23:38:11.906Z,8.50
2019-05-19T23:40:43.914Z,7.55
2019-05-19T23:43:20.370Z,6.37
2019-05-19T23:45:53.159Z,7.12
2019-05-19T23:48:24.715Z,7.22
2019-05-19T23:50:57.032Z,6.85
2019-05-19T23:53:29.171Z,7.72
2019-05-19T23:56:08.160Z,6.65
2019-05-19T23:58:40.451Z,6.87
